<?xml version="1.0" encoding="UTF-8" standalone="no" ?>
<gpx xmlns="http://www.topografix.com/GPX/1/1" xmlns:xsi="http://www.w3.org/2001/XMLSchema-instance" xsi:schemaLocation="http://www.topografix.com/GPX/1/1 http://www.topografix.com/GPX/1/1/gpx.xsd" version="1.1" creator="VisuGPX - https://www.visugpx.com">
  <metadata>
    <name>St Félicien Ardèche boucle par les Gaillards</name>
    <desc><![CDATA[St Félicien Ardèche boucle par les Gaillards 9 Août 2018]]></desc>
  </metadata>
  <trk>
    <name><![CDATA[2018-08-09 18:19:54]]></name>
    <trkseg>
      <trkpt lat="45.08533" lon="4.62526">
        <ele>587.5</ele>
        <time>2018-08-09T14:54:31Z</time>
      </trkpt>
      <trkpt lat="45.08533" lon="4.62526">
        <ele>587.5</ele>
        <time>2018-08-09T14:54:32Z</time>
      </trkpt>
      <trkpt lat="45.08533" lon="4.62526">
        <ele>548.57</ele>
        <time>2018-08-09T14:54:36Z</time>
      </trkpt>
      <trkpt lat="45.08533" lon="4.62526">
        <ele>548.57</ele>
        <time>2018-08-09T14:54:38Z</time>
      </trkpt>
      <trkpt lat="45.08533" lon="4.62523">
        <ele>549.05</ele>
        <time>2018-08-09T14:55:14Z</time>
      </trkpt>
      <trkpt lat="45.08534" lon="4.62521">
        <ele>548.57</ele>
        <time>2018-08-09T14:55:53Z</time>
      </trkpt>
      <trkpt lat="45.08533" lon="4.62521">
        <ele>549.53</ele>
        <time>2018-08-09T14:56:07Z</time>
      </trkpt>
      <trkpt lat="45.0854" lon="4.62528">
        <ele>549.53</ele>
        <time>2018-08-09T14:56:27Z</time>
      </trkpt>
      <trkpt lat="45.08544" lon="4.6253">
        <ele>548.57</ele>
        <time>2018-08-09T14:56:32Z</time>
      </trkpt>
      <trkpt lat="45.0855" lon="4.62532">
        <ele>548.57</ele>
        <time>2018-08-09T14:56:40Z</time>
      </trkpt>
      <trkpt lat="45.08554" lon="4.62534">
        <ele>548.57</ele>
        <time>2018-08-09T14:56:44Z</time>
      </trkpt>
      <trkpt lat="45.08556" lon="4.62535">
        <ele>548.57</ele>
        <time>2018-08-09T14:56:46Z</time>
      </trkpt>
      <trkpt lat="45.08552" lon="4.62549">
        <ele>547.13</ele>
        <time>2018-08-09T14:56:56Z</time>
      </trkpt>
      <trkpt lat="45.08533" lon="4.6254">
        <ele>546.17</ele>
        <time>2018-08-09T14:57:13Z</time>
      </trkpt>
      <trkpt lat="45.08511" lon="4.62528">
        <ele>546.17</ele>
        <time>2018-08-09T14:57:34Z</time>
      </trkpt>
      <trkpt lat="45.0849" lon="4.62513">
        <ele>545.2</ele>
        <time>2018-08-09T14:57:55Z</time>
      </trkpt>
      <trkpt lat="45.08474" lon="4.62502">
        <ele>544.72</ele>
        <time>2018-08-09T14:58:11Z</time>
      </trkpt>
      <trkpt lat="45.0847" lon="4.62499">
        <ele>544.72</ele>
        <time>2018-08-09T14:58:16Z</time>
      </trkpt>
      <trkpt lat="45.08465" lon="4.62495">
        <ele>544.24</ele>
        <time>2018-08-09T14:58:22Z</time>
      </trkpt>
      <trkpt lat="45.08448" lon="4.62487">
        <ele>543.76</ele>
        <time>2018-08-09T14:58:39Z</time>
      </trkpt>
      <trkpt lat="45.08428" lon="4.62482">
        <ele>543.28</ele>
        <time>2018-08-09T14:58:58Z</time>
      </trkpt>
      <trkpt lat="45.08413" lon="4.62482">
        <ele>542.8</ele>
        <time>2018-08-09T14:59:14Z</time>
      </trkpt>
      <trkpt lat="45.084" lon="4.62489">
        <ele>542.32</ele>
        <time>2018-08-09T14:59:31Z</time>
      </trkpt>
      <trkpt lat="45.08382" lon="4.62498">
        <ele>542.8</ele>
        <time>2018-08-09T14:59:49Z</time>
      </trkpt>
      <trkpt lat="45.08377" lon="4.625">
        <ele>542.32</ele>
        <time>2018-08-09T14:59:55Z</time>
      </trkpt>
      <trkpt lat="45.0836" lon="4.62514">
        <ele>541.84</ele>
        <time>2018-08-09T15:00:14Z</time>
      </trkpt>
      <trkpt lat="45.08336" lon="4.62531">
        <ele>541.36</ele>
        <time>2018-08-09T15:00:37Z</time>
      </trkpt>
      <trkpt lat="45.08324" lon="4.62544">
        <ele>541.36</ele>
        <time>2018-08-09T15:00:53Z</time>
      </trkpt>
      <trkpt lat="45.08301" lon="4.62559">
        <ele>541.36</ele>
        <time>2018-08-09T15:01:12Z</time>
      </trkpt>
      <trkpt lat="45.08297" lon="4.6256">
        <ele>541.36</ele>
        <time>2018-08-09T15:01:16Z</time>
      </trkpt>
      <trkpt lat="45.08293" lon="4.62563">
        <ele>540.4</ele>
        <time>2018-08-09T15:01:20Z</time>
      </trkpt>
      <trkpt lat="45.08279" lon="4.62575">
        <ele>540.88</ele>
        <time>2018-08-09T15:01:38Z</time>
      </trkpt>
      <trkpt lat="45.08279" lon="4.62575">
        <ele>540.4</ele>
        <time>2018-08-09T15:01:53Z</time>
      </trkpt>
      <trkpt lat="45.08282" lon="4.62572">
        <ele>540.4</ele>
        <time>2018-08-09T15:02:22Z</time>
      </trkpt>
      <trkpt lat="45.0827" lon="4.62586">
        <ele>540.4</ele>
        <time>2018-08-09T15:02:36Z</time>
      </trkpt>
      <trkpt lat="45.08251" lon="4.62596">
        <ele>540.4</ele>
        <time>2018-08-09T15:02:54Z</time>
      </trkpt>
      <trkpt lat="45.08238" lon="4.62603">
        <ele>539.92</ele>
        <time>2018-08-09T15:03:09Z</time>
      </trkpt>
      <trkpt lat="45.08225" lon="4.626">
        <ele>539.92</ele>
        <time>2018-08-09T15:03:22Z</time>
      </trkpt>
      <trkpt lat="45.08214" lon="4.62592">
        <ele>539.92</ele>
        <time>2018-08-09T15:03:34Z</time>
      </trkpt>
      <trkpt lat="45.08192" lon="4.62568">
        <ele>538.96</ele>
        <time>2018-08-09T15:03:54Z</time>
      </trkpt>
      <trkpt lat="45.0818" lon="4.62551">
        <ele>539.44</ele>
        <time>2018-08-09T15:04:10Z</time>
      </trkpt>
      <trkpt lat="45.08173" lon="4.62545">
        <ele>539.44</ele>
        <time>2018-08-09T15:04:19Z</time>
      </trkpt>
      <trkpt lat="45.08168" lon="4.62541">
        <ele>538.96</ele>
        <time>2018-08-09T15:04:25Z</time>
      </trkpt>
      <trkpt lat="45.0815" lon="4.62528">
        <ele>538.96</ele>
        <time>2018-08-09T15:04:44Z</time>
      </trkpt>
      <trkpt lat="45.08136" lon="4.62512">
        <ele>538.96</ele>
        <time>2018-08-09T15:05:01Z</time>
      </trkpt>
      <trkpt lat="45.0812" lon="4.62493">
        <ele>538.96</ele>
        <time>2018-08-09T15:05:20Z</time>
      </trkpt>
      <trkpt lat="45.08109" lon="4.62473">
        <ele>538.48</ele>
        <time>2018-08-09T15:05:36Z</time>
      </trkpt>
      <trkpt lat="45.08102" lon="4.62466">
        <ele>538.48</ele>
        <time>2018-08-09T15:05:46Z</time>
      </trkpt>
      <trkpt lat="45.08095" lon="4.62459">
        <ele>537.03</ele>
        <time>2018-08-09T15:06:02Z</time>
      </trkpt>
      <trkpt lat="45.0808" lon="4.62457">
        <ele>535.59</ele>
        <time>2018-08-09T15:06:16Z</time>
      </trkpt>
      <trkpt lat="45.08061" lon="4.62457">
        <ele>534.63</ele>
        <time>2018-08-09T15:06:35Z</time>
      </trkpt>
      <trkpt lat="45.08043" lon="4.62454">
        <ele>534.15</ele>
        <time>2018-08-09T15:06:53Z</time>
      </trkpt>
      <trkpt lat="45.08027" lon="4.62445">
        <ele>532.71</ele>
        <time>2018-08-09T15:07:10Z</time>
      </trkpt>
      <trkpt lat="45.08026" lon="4.62445">
        <ele>531.75</ele>
        <time>2018-08-09T15:07:12Z</time>
      </trkpt>
      <trkpt lat="45.08018" lon="4.62445">
        <ele>532.71</ele>
        <time>2018-08-09T15:07:20Z</time>
      </trkpt>
      <trkpt lat="45.08006" lon="4.62449">
        <ele>530.79</ele>
        <time>2018-08-09T15:07:33Z</time>
      </trkpt>
      <trkpt lat="45.0799" lon="4.6246">
        <ele>528.38</ele>
        <time>2018-08-09T15:07:51Z</time>
      </trkpt>
      <trkpt lat="45.07971" lon="4.62464">
        <ele>526.94</ele>
        <time>2018-08-09T15:08:09Z</time>
      </trkpt>
      <trkpt lat="45.07957" lon="4.62468">
        <ele>526.46</ele>
        <time>2018-08-09T15:08:26Z</time>
      </trkpt>
      <trkpt lat="45.07957" lon="4.62468">
        <ele>526.46</ele>
        <time>2018-08-09T15:08:34Z</time>
      </trkpt>
      <trkpt lat="45.07951" lon="4.62472">
        <ele>526.46</ele>
        <time>2018-08-09T15:08:57Z</time>
      </trkpt>
      <trkpt lat="45.07944" lon="4.62477">
        <ele>525.5</ele>
        <time>2018-08-09T15:09:23Z</time>
      </trkpt>
      <trkpt lat="45.0793" lon="4.62486">
        <ele>523.09</ele>
        <time>2018-08-09T15:09:41Z</time>
      </trkpt>
      <trkpt lat="45.07917" lon="4.62494">
        <ele>520.69</ele>
        <time>2018-08-09T15:09:58Z</time>
      </trkpt>
      <trkpt lat="45.07907" lon="4.625">
        <ele>518.29</ele>
        <time>2018-08-09T15:10:14Z</time>
      </trkpt>
      <trkpt lat="45.07905" lon="4.62502">
        <ele>517.81</ele>
        <time>2018-08-09T15:10:31Z</time>
      </trkpt>
      <trkpt lat="45.079" lon="4.62507">
        <ele>516.85</ele>
        <time>2018-08-09T15:10:46Z</time>
      </trkpt>
      <trkpt lat="45.07894" lon="4.62517">
        <ele>515.4</ele>
        <time>2018-08-09T15:11:01Z</time>
      </trkpt>
      <trkpt lat="45.07883" lon="4.62525">
        <ele>513.96</ele>
        <time>2018-08-09T15:11:19Z</time>
      </trkpt>
      <trkpt lat="45.07879" lon="4.62523">
        <ele>513.48</ele>
        <time>2018-08-09T15:11:38Z</time>
      </trkpt>
      <trkpt lat="45.07878" lon="4.62526">
        <ele>513</ele>
        <time>2018-08-09T15:11:44Z</time>
      </trkpt>
      <trkpt lat="45.07868" lon="4.62539">
        <ele>511.56</ele>
        <time>2018-08-09T15:12:01Z</time>
      </trkpt>
      <trkpt lat="45.07859" lon="4.62548">
        <ele>509.16</ele>
        <time>2018-08-09T15:12:14Z</time>
      </trkpt>
      <trkpt lat="45.07854" lon="4.62554">
        <ele>507.23</ele>
        <time>2018-08-09T15:12:27Z</time>
      </trkpt>
      <trkpt lat="45.07846" lon="4.62559">
        <ele>505.31</ele>
        <time>2018-08-09T15:12:40Z</time>
      </trkpt>
      <trkpt lat="45.07837" lon="4.62558">
        <ele>502.91</ele>
        <time>2018-08-09T15:12:55Z</time>
      </trkpt>
      <trkpt lat="45.07829" lon="4.62548">
        <ele>500.98</ele>
        <time>2018-08-09T15:13:12Z</time>
      </trkpt>
      <trkpt lat="45.07823" lon="4.62546">
        <ele>500.02</ele>
        <time>2018-08-09T15:13:31Z</time>
      </trkpt>
      <trkpt lat="45.07819" lon="4.62542">
        <ele>499.06</ele>
        <time>2018-08-09T15:13:43Z</time>
      </trkpt>
      <trkpt lat="45.07812" lon="4.62537">
        <ele>497.62</ele>
        <time>2018-08-09T15:13:52Z</time>
      </trkpt>
      <trkpt lat="45.078" lon="4.62533">
        <ele>495.7</ele>
        <time>2018-08-09T15:14:06Z</time>
      </trkpt>
      <trkpt lat="45.07789" lon="4.62529">
        <ele>493.77</ele>
        <time>2018-08-09T15:14:22Z</time>
      </trkpt>
      <trkpt lat="45.07785" lon="4.62522">
        <ele>493.77</ele>
        <time>2018-08-09T15:14:38Z</time>
      </trkpt>
      <trkpt lat="45.0778" lon="4.62519">
        <ele>492.33</ele>
        <time>2018-08-09T15:14:45Z</time>
      </trkpt>
      <trkpt lat="45.07771" lon="4.6251">
        <ele>490.89</ele>
        <time>2018-08-09T15:15:03Z</time>
      </trkpt>
      <trkpt lat="45.07765" lon="4.625">
        <ele>488.49</ele>
        <time>2018-08-09T15:15:20Z</time>
      </trkpt>
      <trkpt lat="45.07761" lon="4.62496">
        <ele>487.05</ele>
        <time>2018-08-09T15:15:33Z</time>
      </trkpt>
      <trkpt lat="45.07756" lon="4.62488">
        <ele>485.6</ele>
        <time>2018-08-09T15:15:48Z</time>
      </trkpt>
      <trkpt lat="45.07748" lon="4.62484">
        <ele>483.2</ele>
        <time>2018-08-09T15:16:09Z</time>
      </trkpt>
      <trkpt lat="45.07751" lon="4.62493">
        <ele>479.84</ele>
        <time>2018-08-09T15:16:29Z</time>
      </trkpt>
      <trkpt lat="45.07749" lon="4.62507">
        <ele>478.39</ele>
        <time>2018-08-09T15:16:44Z</time>
      </trkpt>
      <trkpt lat="45.07748" lon="4.6252">
        <ele>476.95</ele>
        <time>2018-08-09T15:17:00Z</time>
      </trkpt>
      <trkpt lat="45.07748" lon="4.62532">
        <ele>475.51</ele>
        <time>2018-08-09T15:17:12Z</time>
      </trkpt>
      <trkpt lat="45.07745" lon="4.62544">
        <ele>474.55</ele>
        <time>2018-08-09T15:17:28Z</time>
      </trkpt>
      <trkpt lat="45.07747" lon="4.62555">
        <ele>473.59</ele>
        <time>2018-08-09T15:17:41Z</time>
      </trkpt>
      <trkpt lat="45.07748" lon="4.62563">
        <ele>472.14</ele>
        <time>2018-08-09T15:17:54Z</time>
      </trkpt>
      <trkpt lat="45.07753" lon="4.62575">
        <ele>470.22</ele>
        <time>2018-08-09T15:18:13Z</time>
      </trkpt>
      <trkpt lat="45.07753" lon="4.62579">
        <ele>468.78</ele>
        <time>2018-08-09T15:18:34Z</time>
      </trkpt>
      <trkpt lat="45.07758" lon="4.62596">
        <ele>466.86</ele>
        <time>2018-08-09T15:18:52Z</time>
      </trkpt>
      <trkpt lat="45.07758" lon="4.62606">
        <ele>466.86</ele>
        <time>2018-08-09T15:19:09Z</time>
      </trkpt>
      <trkpt lat="45.07766" lon="4.62614">
        <ele>466.86</ele>
        <time>2018-08-09T15:19:28Z</time>
      </trkpt>
      <trkpt lat="45.07766" lon="4.62617">
        <ele>466.86</ele>
        <time>2018-08-09T15:19:51Z</time>
      </trkpt>
      <trkpt lat="45.07774" lon="4.62621">
        <ele>466.86</ele>
        <time>2018-08-09T15:20:10Z</time>
      </trkpt>
      <trkpt lat="45.07774" lon="4.62622">
        <ele>468.3</ele>
        <time>2018-08-09T15:20:12Z</time>
      </trkpt>
      <trkpt lat="45.07782" lon="4.62639">
        <ele>468.3</ele>
        <time>2018-08-09T15:20:30Z</time>
      </trkpt>
      <trkpt lat="45.07785" lon="4.62644">
        <ele>466.86</ele>
        <time>2018-08-09T15:20:39Z</time>
      </trkpt>
      <trkpt lat="45.07789" lon="4.62655">
        <ele>465.9</ele>
        <time>2018-08-09T15:20:54Z</time>
      </trkpt>
      <trkpt lat="45.07797" lon="4.62669">
        <ele>465.42</ele>
        <time>2018-08-09T15:21:09Z</time>
      </trkpt>
      <trkpt lat="45.07807" lon="4.62691">
        <ele>464.93</ele>
        <time>2018-08-09T15:21:24Z</time>
      </trkpt>
      <trkpt lat="45.07808" lon="4.62694">
        <ele>464.93</ele>
        <time>2018-08-09T15:21:26Z</time>
      </trkpt>
      <trkpt lat="45.07814" lon="4.62714">
        <ele>466.38</ele>
        <time>2018-08-09T15:21:42Z</time>
      </trkpt>
      <trkpt lat="45.07814" lon="4.62721">
        <ele>462.53</ele>
        <time>2018-08-09T15:21:52Z</time>
      </trkpt>
      <trkpt lat="45.07814" lon="4.62721">
        <ele>466.38</ele>
        <time>2018-08-09T15:21:53Z</time>
      </trkpt>
      <trkpt lat="45.07809" lon="4.62721">
        <ele>463.49</ele>
        <time>2018-08-09T15:22:00Z</time>
      </trkpt>
      <trkpt lat="45.07804" lon="4.62722">
        <ele>461.57</ele>
        <time>2018-08-09T15:22:16Z</time>
      </trkpt>
      <trkpt lat="45.07804" lon="4.62731">
        <ele>458.69</ele>
        <time>2018-08-09T15:22:31Z</time>
      </trkpt>
      <trkpt lat="45.07805" lon="4.62737">
        <ele>457.24</ele>
        <time>2018-08-09T15:22:47Z</time>
      </trkpt>
      <trkpt lat="45.07807" lon="4.62745">
        <ele>455.8</ele>
        <time>2018-08-09T15:23:00Z</time>
      </trkpt>
      <trkpt lat="45.07801" lon="4.62752">
        <ele>453.4</ele>
        <time>2018-08-09T15:23:16Z</time>
      </trkpt>
      <trkpt lat="45.078" lon="4.62754">
        <ele>451.96</ele>
        <time>2018-08-09T15:23:35Z</time>
      </trkpt>
      <trkpt lat="45.07801" lon="4.62764">
        <ele>449.55</ele>
        <time>2018-08-09T15:23:49Z</time>
      </trkpt>
      <trkpt lat="45.07792" lon="4.62761">
        <ele>447.63</ele>
        <time>2018-08-09T15:24:12Z</time>
      </trkpt>
      <trkpt lat="45.0779" lon="4.6276">
        <ele>446.67</ele>
        <time>2018-08-09T15:24:24Z</time>
      </trkpt>
      <trkpt lat="45.07792" lon="4.62766">
        <ele>445.23</ele>
        <time>2018-08-09T15:24:35Z</time>
      </trkpt>
      <trkpt lat="45.07795" lon="4.62774">
        <ele>443.31</ele>
        <time>2018-08-09T15:24:51Z</time>
      </trkpt>
      <trkpt lat="45.07796" lon="4.62784">
        <ele>440.9</ele>
        <time>2018-08-09T15:25:03Z</time>
      </trkpt>
      <trkpt lat="45.07797" lon="4.62792">
        <ele>438.98</ele>
        <time>2018-08-09T15:25:17Z</time>
      </trkpt>
      <trkpt lat="45.07798" lon="4.62795">
        <ele>438.5</ele>
        <time>2018-08-09T15:25:22Z</time>
      </trkpt>
      <trkpt lat="45.07802" lon="4.6281">
        <ele>437.06</ele>
        <time>2018-08-09T15:25:36Z</time>
      </trkpt>
      <trkpt lat="45.07803" lon="4.62825">
        <ele>435.61</ele>
        <time>2018-08-09T15:25:53Z</time>
      </trkpt>
      <trkpt lat="45.07804" lon="4.62825">
        <ele>435.61</ele>
        <time>2018-08-09T15:26:24Z</time>
      </trkpt>
      <trkpt lat="45.078" lon="4.62829">
        <ele>435.61</ele>
        <time>2018-08-09T15:26:45Z</time>
      </trkpt>
      <trkpt lat="45.07798" lon="4.62835">
        <ele>435.61</ele>
        <time>2018-08-09T15:27:04Z</time>
      </trkpt>
      <trkpt lat="45.07795" lon="4.62834">
        <ele>434.17</ele>
        <time>2018-08-09T15:27:20Z</time>
      </trkpt>
      <trkpt lat="45.07794" lon="4.62836">
        <ele>435.61</ele>
        <time>2018-08-09T15:27:47Z</time>
      </trkpt>
      <trkpt lat="45.07794" lon="4.62837">
        <ele>435.61</ele>
        <time>2018-08-09T15:27:48Z</time>
      </trkpt>
      <trkpt lat="45.0779" lon="4.62843">
        <ele>437.06</ele>
        <time>2018-08-09T15:28:02Z</time>
      </trkpt>
      <trkpt lat="45.07787" lon="4.62848">
        <ele>437.54</ele>
        <time>2018-08-09T15:28:30Z</time>
      </trkpt>
      <trkpt lat="45.07788" lon="4.62846">
        <ele>437.54</ele>
        <time>2018-08-09T15:28:47Z</time>
      </trkpt>
      <trkpt lat="45.07785" lon="4.62852">
        <ele>440.42</ele>
        <time>2018-08-09T15:29:03Z</time>
      </trkpt>
      <trkpt lat="45.07776" lon="4.6285">
        <ele>441.38</ele>
        <time>2018-08-09T15:29:17Z</time>
      </trkpt>
      <trkpt lat="45.07772" lon="4.62848">
        <ele>441.38</ele>
        <time>2018-08-09T15:29:43Z</time>
      </trkpt>
      <trkpt lat="45.07773" lon="4.62848">
        <ele>441.38</ele>
        <time>2018-08-09T15:30:16Z</time>
      </trkpt>
      <trkpt lat="45.07773" lon="4.62851">
        <ele>441.38</ele>
        <time>2018-08-09T15:30:51Z</time>
      </trkpt>
      <trkpt lat="45.07771" lon="4.6285">
        <ele>441.38</ele>
        <time>2018-08-09T15:31:10Z</time>
      </trkpt>
      <trkpt lat="45.07768" lon="4.62847">
        <ele>442.82</ele>
        <time>2018-08-09T15:31:17Z</time>
      </trkpt>
      <trkpt lat="45.07762" lon="4.62837">
        <ele>444.27</ele>
        <time>2018-08-09T15:31:34Z</time>
      </trkpt>
      <trkpt lat="45.07757" lon="4.62833">
        <ele>446.19</ele>
        <time>2018-08-09T15:31:51Z</time>
      </trkpt>
      <trkpt lat="45.07751" lon="4.62822">
        <ele>448.59</ele>
        <time>2018-08-09T15:32:10Z</time>
      </trkpt>
      <trkpt lat="45.07737" lon="4.62806">
        <ele>452.44</ele>
        <time>2018-08-09T15:32:30Z</time>
      </trkpt>
      <trkpt lat="45.07732" lon="4.62798">
        <ele>452.44</ele>
        <time>2018-08-09T15:32:44Z</time>
      </trkpt>
      <trkpt lat="45.07726" lon="4.62794">
        <ele>453.88</ele>
        <time>2018-08-09T15:33:01Z</time>
      </trkpt>
      <trkpt lat="45.07715" lon="4.62784">
        <ele>456.76</ele>
        <time>2018-08-09T15:33:18Z</time>
      </trkpt>
      <trkpt lat="45.07703" lon="4.62767">
        <ele>458.21</ele>
        <time>2018-08-09T15:33:38Z</time>
      </trkpt>
      <trkpt lat="45.07688" lon="4.62751">
        <ele>460.13</ele>
        <time>2018-08-09T15:33:58Z</time>
      </trkpt>
      <trkpt lat="45.07676" lon="4.62729">
        <ele>461.57</ele>
        <time>2018-08-09T15:34:14Z</time>
      </trkpt>
      <trkpt lat="45.07659" lon="4.62727">
        <ele>462.05</ele>
        <time>2018-08-09T15:34:33Z</time>
      </trkpt>
      <trkpt lat="45.07649" lon="4.62728">
        <ele>463.01</ele>
        <time>2018-08-09T15:34:41Z</time>
      </trkpt>
      <trkpt lat="45.07634" lon="4.62719">
        <ele>463.49</ele>
        <time>2018-08-09T15:34:56Z</time>
      </trkpt>
      <trkpt lat="45.0763" lon="4.62714">
        <ele>463.49</ele>
        <time>2018-08-09T15:35:12Z</time>
      </trkpt>
      <trkpt lat="45.07624" lon="4.6271">
        <ele>463.97</ele>
        <time>2018-08-09T15:35:30Z</time>
      </trkpt>
      <trkpt lat="45.07613" lon="4.62701">
        <ele>467.34</ele>
        <time>2018-08-09T15:35:46Z</time>
      </trkpt>
      <trkpt lat="45.07602" lon="4.62689">
        <ele>469.26</ele>
        <time>2018-08-09T15:36:02Z</time>
      </trkpt>
      <trkpt lat="45.07593" lon="4.62686">
        <ele>470.7</ele>
        <time>2018-08-09T15:36:16Z</time>
      </trkpt>
      <trkpt lat="45.07583" lon="4.6269">
        <ele>472.14</ele>
        <time>2018-08-09T15:36:30Z</time>
      </trkpt>
      <trkpt lat="45.07576" lon="4.62692">
        <ele>472.63</ele>
        <time>2018-08-09T15:36:46Z</time>
      </trkpt>
      <trkpt lat="45.07576" lon="4.62692">
        <ele>472.63</ele>
        <time>2018-08-09T15:37:07Z</time>
      </trkpt>
      <trkpt lat="45.07575" lon="4.62693">
        <ele>472.63</ele>
        <time>2018-08-09T15:37:12Z</time>
      </trkpt>
      <trkpt lat="45.07562" lon="4.62705">
        <ele>471.18</ele>
        <time>2018-08-09T15:37:27Z</time>
      </trkpt>
      <trkpt lat="45.07549" lon="4.62717">
        <ele>471.18</ele>
        <time>2018-08-09T15:37:44Z</time>
      </trkpt>
      <trkpt lat="45.07547" lon="4.62719">
        <ele>472.63</ele>
        <time>2018-08-09T15:37:46Z</time>
      </trkpt>
      <trkpt lat="45.07536" lon="4.62724">
        <ele>474.07</ele>
        <time>2018-08-09T15:38:01Z</time>
      </trkpt>
      <trkpt lat="45.07524" lon="4.62723">
        <ele>475.51</ele>
        <time>2018-08-09T15:38:17Z</time>
      </trkpt>
      <trkpt lat="45.0751" lon="4.62713">
        <ele>478.39</ele>
        <time>2018-08-09T15:38:36Z</time>
      </trkpt>
      <trkpt lat="45.07503" lon="4.62704">
        <ele>479.35</ele>
        <time>2018-08-09T15:38:50Z</time>
      </trkpt>
      <trkpt lat="45.07498" lon="4.62701">
        <ele>481.28</ele>
        <time>2018-08-09T15:39:04Z</time>
      </trkpt>
      <trkpt lat="45.07488" lon="4.62702">
        <ele>483.2</ele>
        <time>2018-08-09T15:39:19Z</time>
      </trkpt>
      <trkpt lat="45.07478" lon="4.62695">
        <ele>485.6</ele>
        <time>2018-08-09T15:39:34Z</time>
      </trkpt>
      <trkpt lat="45.07468" lon="4.62676">
        <ele>487.05</ele>
        <time>2018-08-09T15:39:49Z</time>
      </trkpt>
      <trkpt lat="45.07459" lon="4.62661">
        <ele>488.97</ele>
        <time>2018-08-09T15:40:03Z</time>
      </trkpt>
      <trkpt lat="45.07454" lon="4.62649">
        <ele>491.37</ele>
        <time>2018-08-09T15:40:20Z</time>
      </trkpt>
      <trkpt lat="45.07447" lon="4.62628">
        <ele>492.33</ele>
        <time>2018-08-09T15:40:36Z</time>
      </trkpt>
      <trkpt lat="45.07445" lon="4.62613">
        <ele>492.81</ele>
        <time>2018-08-09T15:40:49Z</time>
      </trkpt>
      <trkpt lat="45.07444" lon="4.62607">
        <ele>492.81</ele>
        <time>2018-08-09T15:40:53Z</time>
      </trkpt>
      <trkpt lat="45.07443" lon="4.62584">
        <ele>492.81</ele>
        <time>2018-08-09T15:41:08Z</time>
      </trkpt>
      <trkpt lat="45.07446" lon="4.62558">
        <ele>492.81</ele>
        <time>2018-08-09T15:41:26Z</time>
      </trkpt>
      <trkpt lat="45.07448" lon="4.62531">
        <ele>493.77</ele>
        <time>2018-08-09T15:41:43Z</time>
      </trkpt>
      <trkpt lat="45.07455" lon="4.62511">
        <ele>493.29</ele>
        <time>2018-08-09T15:41:55Z</time>
      </trkpt>
      <trkpt lat="45.07462" lon="4.62498">
        <ele>492.33</ele>
        <time>2018-08-09T15:42:09Z</time>
      </trkpt>
      <trkpt lat="45.07468" lon="4.62481">
        <ele>489.93</ele>
        <time>2018-08-09T15:42:24Z</time>
      </trkpt>
      <trkpt lat="45.07471" lon="4.62461">
        <ele>488.01</ele>
        <time>2018-08-09T15:42:41Z</time>
      </trkpt>
      <trkpt lat="45.07471" lon="4.62455">
        <ele>486.56</ele>
        <time>2018-08-09T15:42:45Z</time>
      </trkpt>
      <trkpt lat="45.07471" lon="4.62452">
        <ele>488.97</ele>
        <time>2018-08-09T15:42:47Z</time>
      </trkpt>
      <trkpt lat="45.07472" lon="4.6245">
        <ele>487.53</ele>
        <time>2018-08-09T15:42:49Z</time>
      </trkpt>
      <trkpt lat="45.07471" lon="4.62438">
        <ele>486.56</ele>
        <time>2018-08-09T15:43:00Z</time>
      </trkpt>
      <trkpt lat="45.07472" lon="4.62434">
        <ele>486.56</ele>
        <time>2018-08-09T15:43:02Z</time>
      </trkpt>
      <trkpt lat="45.07474" lon="4.62428">
        <ele>486.08</ele>
        <time>2018-08-09T15:43:05Z</time>
      </trkpt>
      <trkpt lat="45.07479" lon="4.62408">
        <ele>484.16</ele>
        <time>2018-08-09T15:43:19Z</time>
      </trkpt>
      <trkpt lat="45.07483" lon="4.62384">
        <ele>483.2</ele>
        <time>2018-08-09T15:43:36Z</time>
      </trkpt>
      <trkpt lat="45.07486" lon="4.62355">
        <ele>481.28</ele>
        <time>2018-08-09T15:43:53Z</time>
      </trkpt>
      <trkpt lat="45.07482" lon="4.62338">
        <ele>479.35</ele>
        <time>2018-08-09T15:44:07Z</time>
      </trkpt>
      <trkpt lat="45.07478" lon="4.62332">
        <ele>477.43</ele>
        <time>2018-08-09T15:44:15Z</time>
      </trkpt>
      <trkpt lat="45.07472" lon="4.6232">
        <ele>477.43</ele>
        <time>2018-08-09T15:44:28Z</time>
      </trkpt>
      <trkpt lat="45.07462" lon="4.623">
        <ele>475.99</ele>
        <time>2018-08-09T15:44:45Z</time>
      </trkpt>
      <trkpt lat="45.07452" lon="4.62284">
        <ele>475.03</ele>
        <time>2018-08-09T15:45:01Z</time>
      </trkpt>
      <trkpt lat="45.07453" lon="4.62267">
        <ele>476.47</ele>
        <time>2018-08-09T15:45:17Z</time>
      </trkpt>
      <trkpt lat="45.07464" lon="4.62256">
        <ele>477.91</ele>
        <time>2018-08-09T15:45:35Z</time>
      </trkpt>
      <trkpt lat="45.07481" lon="4.62239">
        <ele>479.35</ele>
        <time>2018-08-09T15:45:51Z</time>
      </trkpt>
      <trkpt lat="45.07493" lon="4.62214">
        <ele>481.76</ele>
        <time>2018-08-09T15:46:09Z</time>
      </trkpt>
      <trkpt lat="45.07497" lon="4.62193">
        <ele>483.68</ele>
        <time>2018-08-09T15:46:24Z</time>
      </trkpt>
      <trkpt lat="45.07499" lon="4.62177">
        <ele>486.56</ele>
        <time>2018-08-09T15:46:39Z</time>
      </trkpt>
      <trkpt lat="45.07503" lon="4.6215">
        <ele>488.97</ele>
        <time>2018-08-09T15:46:58Z</time>
      </trkpt>
      <trkpt lat="45.07509" lon="4.62129">
        <ele>491.37</ele>
        <time>2018-08-09T15:47:15Z</time>
      </trkpt>
      <trkpt lat="45.0751" lon="4.62106">
        <ele>493.77</ele>
        <time>2018-08-09T15:47:33Z</time>
      </trkpt>
      <trkpt lat="45.07517" lon="4.62085">
        <ele>496.66</ele>
        <time>2018-08-09T15:47:50Z</time>
      </trkpt>
      <trkpt lat="45.07523" lon="4.62066">
        <ele>499.06</ele>
        <time>2018-08-09T15:48:06Z</time>
      </trkpt>
      <trkpt lat="45.07531" lon="4.62047">
        <ele>502.43</ele>
        <time>2018-08-09T15:48:23Z</time>
      </trkpt>
      <trkpt lat="45.07537" lon="4.62026">
        <ele>504.83</ele>
        <time>2018-08-09T15:48:41Z</time>
      </trkpt>
      <trkpt lat="45.07541" lon="4.62005">
        <ele>507.71</ele>
        <time>2018-08-09T15:48:59Z</time>
      </trkpt>
      <trkpt lat="45.07542" lon="4.61989">
        <ele>510.12</ele>
        <time>2018-08-09T15:49:14Z</time>
      </trkpt>
      <trkpt lat="45.07546" lon="4.61972">
        <ele>513.48</ele>
        <time>2018-08-09T15:49:30Z</time>
      </trkpt>
      <trkpt lat="45.07555" lon="4.61952">
        <ele>515.4</ele>
        <time>2018-08-09T15:49:48Z</time>
      </trkpt>
      <trkpt lat="45.07561" lon="4.61935">
        <ele>517.33</ele>
        <time>2018-08-09T15:50:01Z</time>
      </trkpt>
      <trkpt lat="45.07565" lon="4.61927">
        <ele>517.81</ele>
        <time>2018-08-09T15:50:08Z</time>
      </trkpt>
      <trkpt lat="45.07577" lon="4.61912">
        <ele>520.21</ele>
        <time>2018-08-09T15:50:25Z</time>
      </trkpt>
      <trkpt lat="45.07584" lon="4.61908">
        <ele>521.17</ele>
        <time>2018-08-09T15:50:37Z</time>
      </trkpt>
      <trkpt lat="45.0759" lon="4.61909">
        <ele>521.17</ele>
        <time>2018-08-09T15:50:43Z</time>
      </trkpt>
      <trkpt lat="45.07616" lon="4.61908">
        <ele>519.25</ele>
        <time>2018-08-09T15:51:04Z</time>
      </trkpt>
      <trkpt lat="45.07618" lon="4.61908">
        <ele>519.25</ele>
        <time>2018-08-09T15:51:06Z</time>
      </trkpt>
      <trkpt lat="45.07624" lon="4.61904">
        <ele>520.69</ele>
        <time>2018-08-09T15:51:12Z</time>
      </trkpt>
      <trkpt lat="45.07632" lon="4.61907">
        <ele>520.69</ele>
        <time>2018-08-09T15:51:20Z</time>
      </trkpt>
      <trkpt lat="45.07645" lon="4.61917">
        <ele>520.69</ele>
        <time>2018-08-09T15:51:35Z</time>
      </trkpt>
      <trkpt lat="45.07648" lon="4.61921">
        <ele>519.25</ele>
        <time>2018-08-09T15:51:39Z</time>
      </trkpt>
      <trkpt lat="45.07656" lon="4.61927">
        <ele>518.77</ele>
        <time>2018-08-09T15:51:47Z</time>
      </trkpt>
      <trkpt lat="45.07671" lon="4.61932">
        <ele>517.33</ele>
        <time>2018-08-09T15:52:02Z</time>
      </trkpt>
      <trkpt lat="45.07682" lon="4.61937">
        <ele>513.48</ele>
        <time>2018-08-09T15:52:16Z</time>
      </trkpt>
      <trkpt lat="45.07695" lon="4.61943">
        <ele>510.12</ele>
        <time>2018-08-09T15:52:33Z</time>
      </trkpt>
      <trkpt lat="45.07705" lon="4.61949">
        <ele>507.71</ele>
        <time>2018-08-09T15:52:46Z</time>
      </trkpt>
      <trkpt lat="45.07706" lon="4.61949">
        <ele>506.75</ele>
        <time>2018-08-09T15:52:49Z</time>
      </trkpt>
      <trkpt lat="45.0771" lon="4.61942">
        <ele>505.31</ele>
        <time>2018-08-09T15:52:58Z</time>
      </trkpt>
      <trkpt lat="45.07724" lon="4.6193">
        <ele>502.91</ele>
        <time>2018-08-09T15:53:14Z</time>
      </trkpt>
      <trkpt lat="45.0773" lon="4.61923">
        <ele>500.5</ele>
        <time>2018-08-09T15:53:25Z</time>
      </trkpt>
      <trkpt lat="45.0773" lon="4.61926">
        <ele>500.02</ele>
        <time>2018-08-09T15:53:52Z</time>
      </trkpt>
      <trkpt lat="45.07732" lon="4.61925">
        <ele>500.98</ele>
        <time>2018-08-09T15:54:11Z</time>
      </trkpt>
      <trkpt lat="45.07732" lon="4.61919">
        <ele>500.5</ele>
        <time>2018-08-09T15:54:29Z</time>
      </trkpt>
      <trkpt lat="45.07735" lon="4.61907">
        <ele>499.06</ele>
        <time>2018-08-09T15:54:39Z</time>
      </trkpt>
      <trkpt lat="45.07737" lon="4.61905">
        <ele>498.58</ele>
        <time>2018-08-09T15:54:42Z</time>
      </trkpt>
      <trkpt lat="45.07745" lon="4.61893">
        <ele>495.22</ele>
        <time>2018-08-09T15:54:52Z</time>
      </trkpt>
      <trkpt lat="45.07753" lon="4.61876">
        <ele>492.33</ele>
        <time>2018-08-09T15:55:05Z</time>
      </trkpt>
      <trkpt lat="45.07756" lon="4.61877">
        <ele>491.85</ele>
        <time>2018-08-09T15:55:07Z</time>
      </trkpt>
      <trkpt lat="45.07758" lon="4.61881">
        <ele>490.89</ele>
        <time>2018-08-09T15:55:10Z</time>
      </trkpt>
      <trkpt lat="45.07759" lon="4.61897">
        <ele>488.49</ele>
        <time>2018-08-09T15:55:24Z</time>
      </trkpt>
      <trkpt lat="45.07766" lon="4.61911">
        <ele>485.12</ele>
        <time>2018-08-09T15:55:37Z</time>
      </trkpt>
      <trkpt lat="45.07771" lon="4.61929">
        <ele>482.24</ele>
        <time>2018-08-09T15:55:53Z</time>
      </trkpt>
      <trkpt lat="45.07771" lon="4.61944">
        <ele>479.84</ele>
        <time>2018-08-09T15:56:08Z</time>
      </trkpt>
      <trkpt lat="45.07771" lon="4.61949">
        <ele>479.84</ele>
        <time>2018-08-09T15:56:32Z</time>
      </trkpt>
      <trkpt lat="45.07771" lon="4.61949">
        <ele>479.35</ele>
        <time>2018-08-09T15:57:05Z</time>
      </trkpt>
      <trkpt lat="45.07772" lon="4.61945">
        <ele>479.35</ele>
        <time>2018-08-09T15:57:33Z</time>
      </trkpt>
      <trkpt lat="45.07774" lon="4.61949">
        <ele>479.84</ele>
        <time>2018-08-09T15:57:47Z</time>
      </trkpt>
      <trkpt lat="45.07773" lon="4.61972">
        <ele>476.95</ele>
        <time>2018-08-09T15:58:00Z</time>
      </trkpt>
      <trkpt lat="45.07773" lon="4.61976">
        <ele>476.47</ele>
        <time>2018-08-09T15:58:02Z</time>
      </trkpt>
      <trkpt lat="45.07774" lon="4.61979">
        <ele>475.99</ele>
        <time>2018-08-09T15:58:05Z</time>
      </trkpt>
      <trkpt lat="45.0778" lon="4.61978">
        <ele>474.55</ele>
        <time>2018-08-09T15:58:11Z</time>
      </trkpt>
      <trkpt lat="45.07783" lon="4.61968">
        <ele>474.07</ele>
        <time>2018-08-09T15:58:18Z</time>
      </trkpt>
      <trkpt lat="45.07787" lon="4.6196">
        <ele>473.59</ele>
        <time>2018-08-09T15:58:24Z</time>
      </trkpt>
      <trkpt lat="45.07789" lon="4.61955">
        <ele>472.63</ele>
        <time>2018-08-09T15:58:28Z</time>
      </trkpt>
      <trkpt lat="45.07796" lon="4.61945">
        <ele>469.74</ele>
        <time>2018-08-09T15:58:37Z</time>
      </trkpt>
      <trkpt lat="45.07801" lon="4.61936">
        <ele>467.34</ele>
        <time>2018-08-09T15:58:42Z</time>
      </trkpt>
      <trkpt lat="45.07813" lon="4.61912">
        <ele>465.9</ele>
        <time>2018-08-09T15:58:58Z</time>
      </trkpt>
      <trkpt lat="45.07814" lon="4.61887">
        <ele>465.42</ele>
        <time>2018-08-09T15:59:15Z</time>
      </trkpt>
      <trkpt lat="45.07816" lon="4.61864">
        <ele>464.93</ele>
        <time>2018-08-09T15:59:28Z</time>
      </trkpt>
      <trkpt lat="45.07816" lon="4.61855">
        <ele>464.45</ele>
        <time>2018-08-09T15:59:34Z</time>
      </trkpt>
      <trkpt lat="45.07814" lon="4.61825">
        <ele>464.45</ele>
        <time>2018-08-09T15:59:51Z</time>
      </trkpt>
      <trkpt lat="45.07813" lon="4.61811">
        <ele>463.97</ele>
        <time>2018-08-09T16:00:00Z</time>
      </trkpt>
      <trkpt lat="45.07813" lon="4.61794">
        <ele>463.49</ele>
        <time>2018-08-09T16:00:11Z</time>
      </trkpt>
      <trkpt lat="45.07813" lon="4.61787">
        <ele>463.01</ele>
        <time>2018-08-09T16:00:25Z</time>
      </trkpt>
      <trkpt lat="45.07812" lon="4.61784">
        <ele>463.01</ele>
        <time>2018-08-09T16:00:35Z</time>
      </trkpt>
      <trkpt lat="45.07811" lon="4.6178">
        <ele>462.53</ele>
        <time>2018-08-09T16:00:38Z</time>
      </trkpt>
      <trkpt lat="45.07813" lon="4.6177">
        <ele>461.57</ele>
        <time>2018-08-09T16:00:45Z</time>
      </trkpt>
      <trkpt lat="45.07819" lon="4.61739">
        <ele>458.69</ele>
        <time>2018-08-09T16:01:01Z</time>
      </trkpt>
      <trkpt lat="45.07821" lon="4.61733">
        <ele>457.72</ele>
        <time>2018-08-09T16:01:05Z</time>
      </trkpt>
      <trkpt lat="45.07832" lon="4.61734">
        <ele>457.24</ele>
        <time>2018-08-09T16:01:12Z</time>
      </trkpt>
      <trkpt lat="45.07844" lon="4.61746">
        <ele>456.76</ele>
        <time>2018-08-09T16:01:24Z</time>
      </trkpt>
      <trkpt lat="45.07853" lon="4.61763">
        <ele>456.76</ele>
        <time>2018-08-09T16:01:37Z</time>
      </trkpt>
      <trkpt lat="45.07855" lon="4.61765">
        <ele>456.76</ele>
        <time>2018-08-09T16:01:40Z</time>
      </trkpt>
      <trkpt lat="45.07858" lon="4.61772">
        <ele>458.21</ele>
        <time>2018-08-09T16:01:46Z</time>
      </trkpt>
      <trkpt lat="45.07862" lon="4.6178">
        <ele>458.69</ele>
        <time>2018-08-09T16:01:58Z</time>
      </trkpt>
      <trkpt lat="45.07875" lon="4.618">
        <ele>456.28</ele>
        <time>2018-08-09T16:02:15Z</time>
      </trkpt>
      <trkpt lat="45.07886" lon="4.61828">
        <ele>457.24</ele>
        <time>2018-08-09T16:02:32Z</time>
      </trkpt>
      <trkpt lat="45.07894" lon="4.61851">
        <ele>459.65</ele>
        <time>2018-08-09T16:02:48Z</time>
      </trkpt>
      <trkpt lat="45.07899" lon="4.61877">
        <ele>462.05</ele>
        <time>2018-08-09T16:03:04Z</time>
      </trkpt>
      <trkpt lat="45.07908" lon="4.61907">
        <ele>465.42</ele>
        <time>2018-08-09T16:03:26Z</time>
      </trkpt>
      <trkpt lat="45.07912" lon="4.61921">
        <ele>466.38</ele>
        <time>2018-08-09T16:03:42Z</time>
      </trkpt>
      <trkpt lat="45.07919" lon="4.61935">
        <ele>467.82</ele>
        <time>2018-08-09T16:03:59Z</time>
      </trkpt>
      <trkpt lat="45.07931" lon="4.61953">
        <ele>469.74</ele>
        <time>2018-08-09T16:04:15Z</time>
      </trkpt>
      <trkpt lat="45.07934" lon="4.61956">
        <ele>470.22</ele>
        <time>2018-08-09T16:04:18Z</time>
      </trkpt>
      <trkpt lat="45.07941" lon="4.61958">
        <ele>471.18</ele>
        <time>2018-08-09T16:04:24Z</time>
      </trkpt>
      <trkpt lat="45.07956" lon="4.61957">
        <ele>474.07</ele>
        <time>2018-08-09T16:04:39Z</time>
      </trkpt>
      <trkpt lat="45.07971" lon="4.61954">
        <ele>475.99</ele>
        <time>2018-08-09T16:04:56Z</time>
      </trkpt>
      <trkpt lat="45.07988" lon="4.61954">
        <ele>478.39</ele>
        <time>2018-08-09T16:05:12Z</time>
      </trkpt>
      <trkpt lat="45.08006" lon="4.61954">
        <ele>480.32</ele>
        <time>2018-08-09T16:05:30Z</time>
      </trkpt>
      <trkpt lat="45.08026" lon="4.61951">
        <ele>483.2</ele>
        <time>2018-08-09T16:05:48Z</time>
      </trkpt>
      <trkpt lat="45.08046" lon="4.61953">
        <ele>485.6</ele>
        <time>2018-08-09T16:06:05Z</time>
      </trkpt>
      <trkpt lat="45.08062" lon="4.61963">
        <ele>488.97</ele>
        <time>2018-08-09T16:06:20Z</time>
      </trkpt>
      <trkpt lat="45.08079" lon="4.61967">
        <ele>491.85</ele>
        <time>2018-08-09T16:06:37Z</time>
      </trkpt>
      <trkpt lat="45.08094" lon="4.6197">
        <ele>494.26</ele>
        <time>2018-08-09T16:06:54Z</time>
      </trkpt>
      <trkpt lat="45.08109" lon="4.61973">
        <ele>496.66</ele>
        <time>2018-08-09T16:07:09Z</time>
      </trkpt>
      <trkpt lat="45.08117" lon="4.61981">
        <ele>497.62</ele>
        <time>2018-08-09T16:07:19Z</time>
      </trkpt>
      <trkpt lat="45.08127" lon="4.61994">
        <ele>499.54</ele>
        <time>2018-08-09T16:07:33Z</time>
      </trkpt>
      <trkpt lat="45.0813" lon="4.61999">
        <ele>499.54</ele>
        <time>2018-08-09T16:07:55Z</time>
      </trkpt>
      <trkpt lat="45.08129" lon="4.62003">
        <ele>500.5</ele>
        <time>2018-08-09T16:08:12Z</time>
      </trkpt>
      <trkpt lat="45.08131" lon="4.62014">
        <ele>500.98</ele>
        <time>2018-08-09T16:08:21Z</time>
      </trkpt>
      <trkpt lat="45.0813" lon="4.62028">
        <ele>502.91</ele>
        <time>2018-08-09T16:08:29Z</time>
      </trkpt>
      <trkpt lat="45.0813" lon="4.62035">
        <ele>503.87</ele>
        <time>2018-08-09T16:08:33Z</time>
      </trkpt>
      <trkpt lat="45.0813" lon="4.62041">
        <ele>505.31</ele>
        <time>2018-08-09T16:08:37Z</time>
      </trkpt>
      <trkpt lat="45.08131" lon="4.62062">
        <ele>505.79</ele>
        <time>2018-08-09T16:08:53Z</time>
      </trkpt>
      <trkpt lat="45.08129" lon="4.62084">
        <ele>507.71</ele>
        <time>2018-08-09T16:09:08Z</time>
      </trkpt>
      <trkpt lat="45.08127" lon="4.62096">
        <ele>509.16</ele>
        <time>2018-08-09T16:09:16Z</time>
      </trkpt>
      <trkpt lat="45.0812" lon="4.62116">
        <ele>511.56</ele>
        <time>2018-08-09T16:09:29Z</time>
      </trkpt>
      <trkpt lat="45.08118" lon="4.62128">
        <ele>512.52</ele>
        <time>2018-08-09T16:09:36Z</time>
      </trkpt>
      <trkpt lat="45.08113" lon="4.62154">
        <ele>514.92</ele>
        <time>2018-08-09T16:09:51Z</time>
      </trkpt>
      <trkpt lat="45.08117" lon="4.6218">
        <ele>517.81</ele>
        <time>2018-08-09T16:10:09Z</time>
      </trkpt>
      <trkpt lat="45.08118" lon="4.62203">
        <ele>521.17</ele>
        <time>2018-08-09T16:10:25Z</time>
      </trkpt>
      <trkpt lat="45.08121" lon="4.62225">
        <ele>523.58</ele>
        <time>2018-08-09T16:10:40Z</time>
      </trkpt>
      <trkpt lat="45.08127" lon="4.62247">
        <ele>526.94</ele>
        <time>2018-08-09T16:10:56Z</time>
      </trkpt>
      <trkpt lat="45.08132" lon="4.62259">
        <ele>528.38</ele>
        <time>2018-08-09T16:11:07Z</time>
      </trkpt>
      <trkpt lat="45.08131" lon="4.62277">
        <ele>528.38</ele>
        <time>2018-08-09T16:11:20Z</time>
      </trkpt>
      <trkpt lat="45.08131" lon="4.62301">
        <ele>528.86</ele>
        <time>2018-08-09T16:11:33Z</time>
      </trkpt>
      <trkpt lat="45.08126" lon="4.62337">
        <ele>529.34</ele>
        <time>2018-08-09T16:11:50Z</time>
      </trkpt>
      <trkpt lat="45.0812" lon="4.62379">
        <ele>529.82</ele>
        <time>2018-08-09T16:12:12Z</time>
      </trkpt>
      <trkpt lat="45.08114" lon="4.62409">
        <ele>530.3</ele>
        <time>2018-08-09T16:12:28Z</time>
      </trkpt>
      <trkpt lat="45.08111" lon="4.62444">
        <ele>530.79</ele>
        <time>2018-08-09T16:12:47Z</time>
      </trkpt>
      <trkpt lat="45.08117" lon="4.62478">
        <ele>531.75</ele>
        <time>2018-08-09T16:13:06Z</time>
      </trkpt>
      <trkpt lat="45.08141" lon="4.62509">
        <ele>532.71</ele>
        <time>2018-08-09T16:13:29Z</time>
      </trkpt>
      <trkpt lat="45.08168" lon="4.62535">
        <ele>532.71</ele>
        <time>2018-08-09T16:13:53Z</time>
      </trkpt>
      <trkpt lat="45.08188" lon="4.6256">
        <ele>532.71</ele>
        <time>2018-08-09T16:14:11Z</time>
      </trkpt>
      <trkpt lat="45.08203" lon="4.6258">
        <ele>533.67</ele>
        <time>2018-08-09T16:14:26Z</time>
      </trkpt>
      <trkpt lat="45.08225" lon="4.62593">
        <ele>534.15</ele>
        <time>2018-08-09T16:14:45Z</time>
      </trkpt>
      <trkpt lat="45.08227" lon="4.62594">
        <ele>534.15</ele>
        <time>2018-08-09T16:14:47Z</time>
      </trkpt>
      <trkpt lat="45.08251" lon="4.62587">
        <ele>534.63</ele>
        <time>2018-08-09T16:15:05Z</time>
      </trkpt>
      <trkpt lat="45.08265" lon="4.62577">
        <ele>535.11</ele>
        <time>2018-08-09T16:15:18Z</time>
      </trkpt>
      <trkpt lat="45.08275" lon="4.62567">
        <ele>535.59</ele>
        <time>2018-08-09T16:15:28Z</time>
      </trkpt>
      <trkpt lat="45.08281" lon="4.62561">
        <ele>536.07</ele>
        <time>2018-08-09T16:15:34Z</time>
      </trkpt>
      <trkpt lat="45.08292" lon="4.62554">
        <ele>536.55</ele>
        <time>2018-08-09T16:15:43Z</time>
      </trkpt>
      <trkpt lat="45.08315" lon="4.62535">
        <ele>537.51</ele>
        <time>2018-08-09T16:16:03Z</time>
      </trkpt>
      <trkpt lat="45.08328" lon="4.62526">
        <ele>537.99</ele>
        <time>2018-08-09T16:16:14Z</time>
      </trkpt>
      <trkpt lat="45.08333" lon="4.62525">
        <ele>537.99</ele>
        <time>2018-08-09T16:16:18Z</time>
      </trkpt>
      <trkpt lat="45.08338" lon="4.6252">
        <ele>537.99</ele>
        <time>2018-08-09T16:16:22Z</time>
      </trkpt>
      <trkpt lat="45.08356" lon="4.62505">
        <ele>538.48</ele>
        <time>2018-08-09T16:16:38Z</time>
      </trkpt>
      <trkpt lat="45.08377" lon="4.62492">
        <ele>538.48</ele>
        <time>2018-08-09T16:16:55Z</time>
      </trkpt>
      <trkpt lat="45.08382" lon="4.62489">
        <ele>538.96</ele>
        <time>2018-08-09T16:17:00Z</time>
      </trkpt>
      <trkpt lat="45.08402" lon="4.62475">
        <ele>539.44</ele>
        <time>2018-08-09T16:17:18Z</time>
      </trkpt>
      <trkpt lat="45.08428" lon="4.62474">
        <ele>540.4</ele>
        <time>2018-08-09T16:17:38Z</time>
      </trkpt>
      <trkpt lat="45.08451" lon="4.62479">
        <ele>540.4</ele>
        <time>2018-08-09T16:17:56Z</time>
      </trkpt>
      <trkpt lat="45.08459" lon="4.62483">
        <ele>540.88</ele>
        <time>2018-08-09T16:18:02Z</time>
      </trkpt>
      <trkpt lat="45.08463" lon="4.62485">
        <ele>540.88</ele>
        <time>2018-08-09T16:18:05Z</time>
      </trkpt>
      <trkpt lat="45.08478" lon="4.62476">
        <ele>542.8</ele>
        <time>2018-08-09T16:18:19Z</time>
      </trkpt>
      <trkpt lat="45.0848" lon="4.62474">
        <ele>543.28</ele>
        <time>2018-08-09T16:18:22Z</time>
      </trkpt>
      <trkpt lat="45.08487" lon="4.62472">
        <ele>544.72</ele>
        <time>2018-08-09T16:18:28Z</time>
      </trkpt>
      <trkpt lat="45.08498" lon="4.62478">
        <ele>547.13</ele>
        <time>2018-08-09T16:18:41Z</time>
      </trkpt>
      <trkpt lat="45.08502" lon="4.62483">
        <ele>546.65</ele>
        <time>2018-08-09T16:18:45Z</time>
      </trkpt>
      <trkpt lat="45.08517" lon="4.62505">
        <ele>546.65</ele>
        <time>2018-08-09T16:19:01Z</time>
      </trkpt>
      <trkpt lat="45.08522" lon="4.6251">
        <ele>546.65</ele>
        <time>2018-08-09T16:19:06Z</time>
      </trkpt>
      <trkpt lat="45.08528" lon="4.62516">
        <ele>547.13</ele>
        <time>2018-08-09T16:19:18Z</time>
      </trkpt>
      <trkpt lat="45.08529" lon="4.62516">
        <ele>546.65</ele>
        <time>2018-08-09T16:19:37Z</time>
      </trkpt>
      <trkpt lat="45.08529" lon="4.62517">
        <ele>547.13</ele>
        <time>2018-08-09T16:19:50Z</time>
      </trkpt>
    </trkseg>
  </trk>
</gpx>